Time;durP1;ratioP1;P1;durP2;ratioP2;P2;SDS_P1;SDS_P2;PMS_P1;PMS_P2;Temp;Humidity;BMP_temperature;BMP_pressure;BME280_temperature;BME280_humidity;BME280_pressure;Samples;Min_cycle;Max_cycle;Signal;HPM_P1;HPM_P2
2022/07/19 00:00:46;;;;;;;11.85;3.20;;;18.70;96.90;;;;;;5112403;28;20390;-67
2022/07/19 00:03:16;;;;;;;5.00;3.17;;;18.60;99.90;;;;;;5110901;28;20224;-67
2022/07/19 00:05:44;;;;;;;7.10;3.50;;;18.50;99.90;;;;;;5111340;28;20204;-67
2022/07/19 00:08:11;;;;;;;5.45;3.22;;;18.30;99.90;;;;;;5113400;28;20739;-67
2022/07/19 00:10:38;;;;;;;5.90;3.22;;;17.50;99.90;;;;;;5100590;28;20211;-67
2022/07/19 00:13:05;;;;;;;6.07;3.20;;;17.50;99.90;;;;;;5111374;27;20214;-67
2022/07/19 00:15:32;;;;;;;6.07;2.70;;;17.70;99.90;;;;;;5111163;28;20197;-67
2022/07/19 00:17:59;;;;;;;5.10;3.15;;;17.90;99.90;;;;;;5098643;28;20659;-67
2022/07/19 00:20:28;;;;;;;6.22;3.58;;;17.90;99.90;;;;;;5111685;28;20305;-67
2022/07/19 00:22:55;;;;;;;9.10;3.15;;;18.00;99.90;;;;;;5112133;28;20220;-67
2022/07/19 00:25:22;;;;;;;7.20;3.42;;;18.10;99.90;;;;;;5099281;28;20202;-67
2022/07/19 00:27:49;;;;;;;7.30;3.25;;;18.00;99.10;;;;;;5112535;28;20259;-67
2022/07/19 00:30:15;;;;;;;7.30;3.10;;;18.00;98.50;;;;;;5111484;28;20246;-67
2022/07/19 00:32:43;;;;;;;6.88;3.13;;;17.90;98.50;;;;;;5110029;28;20208;-67
2022/07/19 00:35:10;;;;;;;6.57;2.80;;;18.00;95.60;;;;;;5106865;28;20301;-67
2022/07/19 00:37:38;;;;;;;6.25;2.97;;;17.90;96.60;;;;;;5110960;28;20201;-67
2022/07/19 00:40:06;;;;;;;7.25;3.05;;;17.90;98.60;;;;;;5110784;28;20659;-67
2022/07/19 00:42:33;;;;;;;6.88;3.80;;;17.70;99.90;;;;;;5111531;28;20204;-67
2022/07/19 00:45:00;;;;;;;8.80;3.40;;;17.40;99.90;;;;;;5111378;28;20201;-67
2022/07/19 00:47:27;;;;;;;9.30;3.40;;;17.00;99.90;;;;;;5112225;27;20247;-67
2022/07/19 00:49:54;;;;;;;8.40;3.42;;;16.80;99.90;;;;;;5110198;28;20737;-67
2022/07/19 00:52:25;;;;;;;5.82;3.13;;;16.80;99.90;;;;;;5110377;28;20704;-67
2022/07/19 00:54:54;;;;;;;8.73;3.25;;;17.00;99.90;;;;;;5112370;28;20228;-67
2022/07/19 00:57:24;;;;;;;10.90;3.30;;;16.90;99.90;;;;;;5112098;27;20718;-67
2022/07/19 00:59:54;;;;;;;7.00;3.85;;;16.80;99.90;;;;;;5091866;28;20640;-67
2022/07/19 01:02:21;;;;;;;9.02;3.72;;;16.70;99.90;;;;;;5110060;28;20205;-67
2022/07/19 01:04:48;;;;;;;5.03;3.75;;;16.80;99.90;;;;;;5108291;28;20216;-67
2022/07/19 01:07:15;;;;;;;6.75;3.42;;;16.70;99.90;;;;;;5111455;28;20185;-67
2022/07/19 01:09:42;;;;;;;7.68;3.40;;;16.80;99.90;;;;;;5111693;28;20284;-67
2022/07/19 01:12:11;;;;;;;5.95;3.58;;;16.80;99.90;;;;;;5098321;28;20250;-67
2022/07/19 01:14:38;;;;;;;5.70;3.40;;;16.90;99.90;;;;;;5111269;28;20288;-67
2022/07/19 01:17:06;;;;;;;4.47;3.28;;;17.00;99.90;;;;;;5098487;28;20197;-67
2022/07/19 01:19:33;;;;;;;4.72;3.50;;;17.00;99.90;;;;;;5105203;28;20689;-67
2022/07/19 01:22:01;;;;;;;6.80;3.55;;;17.00;99.90;;;;;;5107293;28;21011;-67
2022/07/19 01:24:29;;;;;;;7.85;3.03;;;17.00;99.90;;;;;;5104308;28;20224;-67
2022/07/19 01:26:56;;;;;;;3.78;3.00;;;17.00;99.90;;;;;;5100152;28;20198;-67
2022/07/19 01:29:23;;;;;;;4.93;2.97;;;17.00;99.90;;;;;;5110715;28;20201;-67
2022/07/19 01:31:50;;;;;;;5.60;3.35;;;17.00;99.90;;;;;;5103826;28;20205;-67
2022/07/19 01:34:17;;;;;;;7.22;3.50;;;17.00;99.90;;;;;;5108193;28;20197;-67
2022/07/19 01:36:44;;;;;;;9.05;3.33;;;17.00;99.90;;;;;;5101897;28;20198;-67
2022/07/19 01:39:12;;;;;;;6.40;3.13;;;16.80;99.90;;;;;;5109773;28;20209;-67
2022/07/19 01:41:39;;;;;;;5.05;2.92;;;16.80;99.90;;;;;;5111601;28;20230;-67
2022/07/19 01:44:06;;;;;;;9.73;3.22;;;16.90;99.90;;;;;;5108087;28;20252;-67
2022/07/19 01:46:33;;;;;;;8.40;3.50;;;16.80;99.90;;;;;;5110603;28;20205;-67
2022/07/19 01:49:00;;;;;;;7.30;3.00;;;16.60;99.90;;;;;;5108122;28;20259;-67
2022/07/19 01:51:27;;;;;;;5.60;2.90;;;16.70;99.90;;;;;;5108874;28;20632;-67
2022/07/19 01:53:54;;;;;;;11.50;3.50;;;16.60;99.90;;;;;;5110771;28;20204;-67
2022/07/19 01:56:22;;;;;;;6.82;3.13;;;16.50;99.90;;;;;;5106805;28;20608;-67
2022/07/19 01:58:49;;;;;;;6.60;3.63;;;16.50;99.90;;;;;;5111692;28;20232;-67
2022/07/19 02:01:16;;;;;;;6.20;3.13;;;16.50;99.90;;;;;;5110748;28;20704;-67
2022/07/19 02:03:43;;;;;;;7.50;3.20;;;16.40;99.90;;;;;;5110898;28;20731;-67
2022/07/19 02:06:10;;;;;;;7.30;3.15;;;16.30;99.90;;;;;;5109804;28;20232;-67
2022/07/19 02:08:38;;;;;;;5.57;3.28;;;16.40;99.90;;;;;;5111317;28;20204;-67
2022/07/19 02:13:48;;;;;;;10.20;3.47;;;16.50;99.90;;;;;;5110442;28;20604;-67
2022/07/19 02:16:15;;;;;;;9.77;2.90;;;16.50;99.90;;;;;;5106192;28;20201;-67
2022/07/19 02:18:42;;;;;;;5.97;3.10;;;16.50;99.90;;;;;;5108826;28;20327;-67
2022/07/19 02:21:09;;;;;;;10.85;3.28;;;16.30;99.90;;;;;;5091048;28;20242;-67
2022/07/19 02:23:36;;;;;;;6.30;3.22;;;16.20;99.90;;;;;;5110498;28;20294;-67
2022/07/19 02:26:03;;;;;;;3.83;3.00;;;16.30;99.90;;;;;;5109668;28;20642;-67
2022/07/19 02:28:30;;;;;;;5.75;3.20;;;16.50;99.90;;;;;;5108985;28;20205;-67
2022/07/19 02:30:58;;;;;;;5.03;3.33;;;16.50;99.90;;;;;;5101837;28;20324;-67
2022/07/19 02:33:25;;;;;;;7.88;3.15;;;16.40;99.90;;;;;;5109032;28;20202;-67
2022/07/19 02:35:52;;;;;;;6.25;3.15;;;16.30;99.90;;;;;;5111480;28;20246;-67
2022/07/19 02:38:19;;;;;;;6.05;2.95;;;16.30;99.90;;;;;;5110617;28;20193;-67
2022/07/19 02:40:46;;;;;;;6.40;3.28;;;16.20;99.90;;;;;;5108899;28;20246;-67
2022/07/19 02:43:13;;;;;;;7.95;3.40;;;16.30;99.90;;;;;;5110527;28;20217;-67
2022/07/19 02:45:40;;;;;;;4.38;2.95;;;16.30;99.90;;;;;;5096719;28;20202;-67
2022/07/19 02:48:10;;;;;;;5.97;3.40;;;16.20;99.90;;;;;;5108667;28;20196;-67
2022/07/19 02:50:37;;;;;;;6.20;3.03;;;16.10;99.90;;;;;;5104850;28;20605;-67
2022/07/19 02:53:04;;;;;;;4.97;2.90;;;16.10;99.90;;;;;;5110819;28;20430;-66
2022/07/19 02:55:31;;;;;;;4.10;2.80;;;16.20;99.90;;;;;;5109394;28;20288;-66
2022/07/19 02:57:58;;;;;;;7.25;3.17;;;16.20;99.90;;;;;;5104422;28;20255;-67
2022/07/19 03:00:26;;;;;;;8.80;2.97;;;16.10;99.90;;;;;;5101732;28;20238;-67
2022/07/19 03:02:53;;;;;;;4.60;2.85;;;16.10;99.90;;;;;;5093563;28;20229;-66
2022/07/19 03:05:22;;;;;;;3.55;2.90;;;16.10;99.90;;;;;;5103659;28;20221;-67
2022/07/19 03:07:49;;;;;;;3.60;3.30;;;16.00;99.90;;;;;;5113843;28;20232;-65
2022/07/19 03:10:16;;;;;;;6.47;3.47;;;15.90;99.90;;;;;;5113235;27;20254;-66
2022/07/19 03:12:43;;;;;;;4.72;3.42;;;16.00;99.90;;;;;;5093984;28;20247;-65
2022/07/19 03:15:10;;;;;;;5.45;3.03;;;16.00;99.90;;;;;;5093361;28;20563;-65
2022/07/19 03:17:37;;;;;;;4.22;3.05;;;16.00;99.90;;;;;;5093226;28;20201;-66
2022/07/19 03:20:05;;;;;;;4.45;3.22;;;16.00;99.90;;;;;;5096976;28;20208;-65
2022/07/19 03:22:33;;;;;;;3.85;3.20;;;15.90;99.90;;;;;;5093596;28;20247;-67
2022/07/19 03:25:00;;;;;;;6.90;3.45;;;15.80;99.90;;;;;;5092703;28;20226;-66
2022/07/19 03:27:27;;;;;;;7.97;3.22;;;15.70;99.90;;;;;;5094192;28;20197;-67
2022/07/19 03:29:54;;;;;;;7.50;3.60;;;15.80;99.90;;;;;;5093199;28;20233;-67
2022/07/19 03:32:21;;;;;;;8.13;5.35;;;15.80;99.90;;;;;;5093742;28;20197;-67
2022/07/19 03:34:48;;;;;;;6.43;4.03;;;15.90;99.90;;;;;;5108333;28;20209;-67
2022/07/19 03:37:15;;;;;;;6.50;3.60;;;15.90;99.90;;;;;;5114178;28;20703;-67
2022/07/19 03:39:43;;;;;;;6.72;3.53;;;15.80;99.90;;;;;;5113451;28;20224;-67
2022/07/19 03:42:10;;;;;;;7.00;3.65;;;15.70;99.90;;;;;;5113686;28;20201;-67
2022/07/19 03:44:37;;;;;;;4.53;3.50;;;15.70;99.90;;;;;;5109582;28;20221;-67
2022/07/19 03:47:04;;;;;;;7.75;3.25;;;15.70;99.90;;;;;;5113466;28;20250;-67
2022/07/19 03:49:31;;;;;;;6.25;3.35;;;15.70;99.90;;;;;;5114174;28;20224;-66
2022/07/19 03:51:58;;;;;;;5.77;3.17;;;15.70;99.90;;;;;;5098312;28;20205;-66
2022/07/19 03:54:25;;;;;;;7.03;3.20;;;15.90;99.90;;;;;;5093260;28;20210;-66
2022/07/19 03:56:55;;;;;;;7.75;3.20;;;16.10;99.90;;;;;;5091824;28;20240;-66
2022/07/19 03:59:23;;;;;;;4.57;3.15;;;16.20;99.90;;;;;;5093298;28;20214;-66
2022/07/19 04:01:49;;;;;;;6.25;3.00;;;16.20;99.90;;;;;;5092798;28;20366;-66
2022/07/19 04:04:17;;;;;;;5.45;2.85;;;16.10;99.90;;;;;;5091897;28;20667;-66
2022/07/19 04:06:44;;;;;;;6.25;3.38;;;16.20;99.90;;;;;;5093501;28;20655;-66
2022/07/19 04:09:11;;;;;;;5.93;3.20;;;16.40;99.90;;;;;;5092506;28;20198;-66
2022/07/19 04:11:38;;;;;;;4.22;2.65;;;16.80;99.90;;;;;;5091545;28;20206;-67
2022/07/19 04:14:07;;;;;;;6.88;3.10;;;17.40;99.90;;;;;;5092000;28;20664;-66
2022/07/19 04:16:34;;;;;;;4.53;3.13;;;17.00;99.90;;;;;;5092914;28;20227;-67
2022/07/19 04:19:01;;;;;;;4.45;3.08;;;17.00;99.90;;;;;;5091962;28;20912;-66
2022/07/19 04:21:28;;;;;;;7.40;3.70;;;17.50;99.90;;;;;;5109456;28;20654;-67
2022/07/19 04:23:55;;;;;;;4.43;3.47;;;16.90;99.90;;;;;;5103429;28;20778;-66
2022/07/19 04:26:22;;;;;;;7.80;3.53;;;16.40;99.90;;;;;;5091611;28;20711;-67
2022/07/19 04:28:49;;;;;;;6.93;3.25;;;16.30;99.90;;;;;;5092392;28;20236;-67
2022/07/19 04:31:17;;;;;;;4.80;3.17;;;17.30;99.90;;;;;;5092076;28;20627;-67
2022/07/19 04:33:44;;;;;;;3.42;3.10;;;18.10;99.90;;;;;;5091403;28;20202;-67
2022/07/19 04:36:11;;;;;;;7.30;3.03;;;17.90;99.90;;;;;;5092835;28;20241;-67
2022/07/19 04:38:38;;;;;;;4.10;3.20;;;18.00;99.90;;;;;;5092325;28;20251;-67
2022/07/19 04:41:06;;;;;;;4.50;3.33;;;17.80;99.90;;;;;;5091550;28;20254;-67
2022/07/19 04:43:33;;;;;;;5.15;3.30;;;17.70;99.90;;;;;;5092546;28;20198;-67
2022/07/19 04:46:00;;;;;;;5.45;2.95;;;17.70;99.90;;;;;;5091352;28;20675;-67
2022/07/19 04:48:28;;;;;;;5.57;3.33;;;17.60;99.90;;;;;;5092129;28;20233;-67
2022/07/19 04:50:56;;;;;;;8.15;3.28;;;17.50;99.90;;;;;;5090421;28;20241;-68
2022/07/19 04:53:23;;;;;;;7.88;3.30;;;17.30;99.90;;;;;;5090751;28;20296;-69
2022/07/19 04:55:50;;;;;;;5.07;3.40;;;17.90;99.90;;;;;;5091149;28;20255;-69
2022/07/19 04:58:17;;;;;;;4.28;3.13;;;17.90;99.40;;;;;;5092193;28;20206;-68
2022/07/19 05:00:44;;;;;;;6.32;3.53;;;17.80;99.90;;;;;;5092196;28;20671;-68
2022/07/19 05:03:11;;;;;;;5.72;3.55;;;17.80;99.90;;;;;;5090350;28;20258;-68
2022/07/19 05:05:39;;;;;;;5.32;3.20;;;17.90;99.90;;;;;;5094187;28;20278;-68
2022/07/19 05:08:06;;;;;;;8.25;3.67;;;17.90;99.90;;;;;;5112358;28;20729;-68
2022/07/19 05:10:33;;;;;;;4.50;3.13;;;17.90;99.90;;;;;;5108671;28;20293;-68
2022/07/19 05:13:00;;;;;;;6.43;3.35;;;17.90;99.90;;;;;;5107612;28;20201;-69
2022/07/19 05:15:27;;;;;;;6.15;3.20;;;18.00;99.90;;;;;;5090799;28;20258;-68
2022/07/19 05:17:54;;;;;;;8.02;3.33;;;18.10;99.90;;;;;;5103699;28;20197;-68
2022/07/19 05:20:21;;;;;;;5.60;3.40;;;18.30;99.90;;;;;;5105867;28;20296;-68
2022/07/19 05:22:50;;;;;;;4.22;3.05;;;18.20;99.90;;;;;;5103509;28;21624;-69
2022/07/19 05:25:17;;;;;;;5.38;3.22;;;18.10;99.90;;;;;;5095239;28;20225;-68
2022/07/19 05:27:44;;;;;;;4.20;3.28;;;18.20;99.90;;;;;;5106894;28;20559;-68
2022/07/19 05:30:12;;;;;;;6.57;3.28;;;18.10;99.90;;;;;;5099457;28;20283;-68
2022/07/19 05:32:41;;;;;;;6.05;3.25;;;18.50;99.90;;;;;;5089507;28;20228;-69
2022/07/19 05:35:09;;;;;;;6.03;3.33;;;19.20;98.10;;;;;;5091873;28;20213;-68
2022/07/19 05:37:36;;;;;;;6.25;3.10;;;20.00;92.00;;;;;;5090571;28;20255;-68
2022/07/19 05:40:05;;;;;;;4.50;3.05;;;20.40;84.20;;;;;;5091132;28;20209;-69
2022/07/19 05:42:32;;;;;;;9.05;2.90;;;20.20;86.30;;;;;;5091185;28;20260;-69
2022/07/19 05:45:00;;;;;;;4.50;3.10;;;20.40;81.30;;;;;;5090646;28;20229;-69
2022/07/19 05:47:27;;;;;;;5.47;3.28;;;21.10;74.70;;;;;;5090708;28;20201;-69
2022/07/19 05:49:54;;;;;;;5.32;2.95;;;21.50;67.70;;;;;;5089727;28;20243;-69
2022/07/19 05:52:21;;;;;;;4.90;3.08;;;21.20;67.70;;;;;;5091163;28;20259;-69
2022/07/19 05:54:48;;;;;;;3.33;3.03;;;21.10;72.20;;;;;;5091078;28;20259;-69
2022/07/19 05:57:16;;;;;;;4.60;3.00;;;21.60;69.60;;;;;;5090537;28;20576;-69
2022/07/19 05:59:43;;;;;;;4.75;2.92;;;21.40;64.50;;;;;;5091452;28;20197;-69
2022/07/19 06:02:10;;;;;;;4.38;3.20;;;20.40;70.40;;;;;;5091358;28;20278;-69
2022/07/19 06:04:37;;;;;;;5.03;2.60;;;20.50;71.80;;;;;;5088770;28;20257;-69
2022/07/19 06:07:04;;;;;;;6.68;3.65;;;20.60;75.20;;;;;;5091040;28;20663;-69
2022/07/19 06:09:31;;;;;;;3.58;3.22;;;20.50;76.00;;;;;;5088723;28;20178;-69
2022/07/19 06:11:58;;;;;;;5.43;3.40;;;20.60;74.60;;;;;;5094981;28;20284;-69
2022/07/19 06:14:26;;;;;;;5.55;3.20;;;20.70;71.80;;;;;;5090881;28;20251;-69
2022/07/19 06:16:54;;;;;;;6.20;3.08;;;20.70;73.00;;;;;;5102281;28;20609;-69
2022/07/19 06:19:21;;;;;;;6.43;3.65;;;20.80;74.40;;;;;;5111441;28;20197;-69
2022/07/19 06:21:48;;;;;;;4.47;2.80;;;20.70;73.80;;;;;;5110654;28;20614;-69
2022/07/19 06:24:15;;;;;;;6.00;3.33;;;20.70;74.60;;;;;;5108914;28;20553;-69
2022/07/19 06:26:42;;;;;;;4.85;2.97;;;21.00;76.40;;;;;;5111183;28;20236;-69
2022/07/19 06:29:09;;;;;;;3.67;2.90;;;21.00;80.30;;;;;;5103458;28;20605;-69
2022/07/19 06:31:37;;;;;;;5.10;2.75;;;21.00;72.70;;;;;;5089275;28;20221;-69
2022/07/19 06:34:04;;;;;;;6.22;3.13;;;21.20;72.60;;;;;;5089735;28;20208;-69
2022/07/19 06:36:32;;;;;;;5.13;3.20;;;21.50;78.50;;;;;;5094357;28;20209;-69
2022/07/19 06:38:59;;;;;;;5.78;3.90;;;21.50;73.60;;;;;;5093897;28;20644;-69
2022/07/19 06:41:26;;;;;;;6.28;3.25;;;21.70;72.30;;;;;;5093578;28;20202;-69
2022/07/19 06:43:53;;;;;;;3.92;2.78;;;21.70;71.30;;;;;;5094965;28;20198;-69
2022/07/19 06:46:20;;;;;;;6.55;2.85;;;21.70;71.10;;;;;;5094801;28;20229;-69
2022/07/19 06:48:48;;;;;;;6.70;3.20;;;21.80;70.70;;;;;;5092585;28;20301;-69
2022/07/19 06:51:15;;;;;;;4.45;3.25;;;21.90;64.40;;;;;;5093043;28;20256;-69
2022/07/19 06:53:42;;;;;;;9.95;3.72;;;22.10;62.80;;;;;;5094642;28;20205;-69
2022/07/19 06:56:09;;;;;;;5.55;3.15;;;22.10;62.10;;;;;;5093561;28;20205;-69
2022/07/19 06:58:36;;;;;;;3.70;3.03;;;22.00;64.60;;;;;;5094680;28;20208;-69
2022/07/19 07:01:04;;;;;;;7.47;3.50;;;22.10;60.10;;;;;;5093478;28;20564;-69
2022/07/19 07:03:31;;;;;;;7.95;3.15;;;22.30;56.50;;;;;;5094635;28;20215;-69
2022/07/19 07:05:59;;;;;;;5.07;3.40;;;22.40;54.70;;;;;;5094135;28;20221;-69
2022/07/19 07:08:26;;;;;;;7.72;3.63;;;22.70;55.20;;;;;;5093768;28;20246;-69
2022/07/19 07:10:53;;;;;;;5.63;2.88;;;23.00;53.20;;;;;;5093903;28;20202;-69
2022/07/19 07:13:20;;;;;;;7.53;3.33;;;23.20;48.20;;;;;;5096919;28;20243;-69
2022/07/19 07:15:47;;;;;;;4.82;3.13;;;23.30;48.40;;;;;;5114481;28;20201;-69
2022/07/19 07:18:14;;;;;;;5.70;3.13;;;23.30;47.70;;;;;;5114150;28;20538;-69
2022/07/19 07:20:41;;;;;;;9.48;3.50;;;23.40;45.50;;;;;;5107130;28;20205;-69
2022/07/19 07:23:10;;;;;;;5.60;3.25;;;23.40;44.50;;;;;;5107069;28;20208;-69
2022/07/19 07:25:37;;;;;;;6.65;3.10;;;23.50;46.30;;;;;;5113568;28;20315;-69
2022/07/19 07:28:04;;;;;;;13.18;3.58;;;23.70;45.50;;;;;;5108914;28;20198;-69
2022/07/19 07:30:31;;;;;;;13.60;3.33;;;23.80;43.30;;;;;;5093977;28;20197;-69
2022/07/19 07:32:58;;;;;;;9.35;3.78;;;24.10;45.60;;;;;;5091970;28;20201;-69
2022/07/19 07:35:25;;;;;;;7.20;3.53;;;24.40;43.80;;;;;;5091970;28;20201;-69
2022/07/19 07:37:52;;;;;;;14.40;3.38;;;24.40;41.70;;;;;;5092176;28;20288;-69
2022/07/19 07:40:20;;;;;;;9.48;3.20;;;24.50;45.50;;;;;;5092958;28;20556;-70
2022/07/19 07:42:47;;;;;;;7.78;3.22;;;24.60;42.70;;;;;;5093179;28;20255;-69
2022/07/19 07:45:14;;;;;;;4.05;3.05;;;24.50;41.10;;;;;;5093852;28;20265;-69
2022/07/19 07:47:41;;;;;;;13.75;4.20;;;24.60;41.40;;;;;;5092536;28;20233;-69
2022/07/19 07:50:09;;;;;;;12.45;3.47;;;25.00;37.20;;;;;;5112222;28;20229;-69
2022/07/19 07:52:36;;;;;;;14.63;3.22;;;25.10;35.20;;;;;;5113307;28;20207;-69
2022/07/19 07:55:03;;;;;;;12.35;4.05;;;25.10;34.70;;;;;;5111891;28;20647;-69
2022/07/19 07:57:32;;;;;;;15.68;3.70;;;25.30;36.70;;;;;;5109885;28;20204;-69
2022/07/19 07:59:59;;;;;;;9.63;3.33;;;25.30;34.90;;;;;;5092529;28;20621;-69
2022/07/19 08:02:26;;;;;;;10.30;3.53;;;25.50;33.90;;;;;;5093034;28;20707;-69
2022/07/19 08:04:53;;;;;;;8.45;3.55;;;25.50;35.30;;;;;;5093319;28;20202;-69
2022/07/19 08:07:20;;;;;;;8.98;3.42;;;25.60;33.10;;;;;;5093166;28;20250;-69
2022/07/19 08:09:47;;;;;;;7.80;3.30;;;25.80;34.70;;;;;;5092093;28;20608;-69
2022/07/19 08:12:14;;;;;;;3.58;3.20;;;26.00;32.50;;;;;;5092591;28;20280;-69
2022/07/19 08:14:42;;;;;;;11.23;3.60;;;26.30;27.10;;;;;;5092433;28;20233;-69
2022/07/19 08:17:09;;;;;;;6.43;3.30;;;26.40;25.80;;;;;;5093115;28;20223;-70
2022/07/19 08:19:36;;;;;;;7.68;3.20;;;26.60;27.40;;;;;;5093015;28;20288;-69
2022/07/19 08:22:03;;;;;;;4.43;3.13;;;26.70;24.20;;;;;;5092718;28;20248;-69
2022/07/19 08:24:30;;;;;;;5.15;3.00;;;26.90;23.30;;;;;;5091738;28;20267;-69
2022/07/19 08:26:57;;;;;;;4.95;3.22;;;27.20;21.40;;;;;;5092272;28;20225;-69
2022/07/19 08:29:24;;;;;;;3.67;2.90;;;27.40;21.20;;;;;;5093419;28;20202;-69
2022/07/19 08:31:52;;;;;;;7.50;3.25;;;27.40;20.80;;;;;;5091351;28;20269;-70
2022/07/19 08:34:19;;;;;;;6.05;3.33;;;27.30;21.20;;;;;;5091150;28;20694;-70
2022/07/19 08:36:46;;;;;;;5.57;3.28;;;27.40;20.20;;;;;;5110530;28;20890;-69
2022/07/19 08:39:13;;;;;;;4.38;2.95;;;27.50;18.00;;;;;;5111937;28;20203;-69
2022/07/19 08:41:44;;;;;;;8.00;3.53;;;27.60;19.30;;;;;;5101835;27;20263;-69
2022/07/19 08:44:11;;;;;;;5.43;3.25;;;27.60;17.30;;;;;;5092552;28;20209;-69
2022/07/19 08:46:39;;;;;;;6.18;3.10;;;27.70;18.00;;;;;;5091968;28;20253;-69
2022/07/19 08:49:08;;;;;;;6.38;3.13;;;28.00;16.40;;;;;;5091464;28;20198;-69
2022/07/19 08:51:35;;;;;;;8.13;3.10;;;28.00;17.30;;;;;;5092148;28;20198;-69
2022/07/19 08:54:02;;;;;;;6.93;2.85;;;28.40;12.10;;;;;;5092012;28;20240;-70
2022/07/19 08:59:14;;;;;;;6.35;3.17;;;28.70;12.20;;;;;;5092460;28;20559;-69
2022/07/19 09:01:41;;;;;;;4.25;3.00;;;29.00;12.20;;;;;;5091723;28;20236;-69
2022/07/19 09:04:14;;;;;;;6.53;2.78;;;29.20;8.50;;;;;;5090801;28;20735;-70
2022/07/19 09:06:44;;;;;;;7.80;4.25;;;29.70;7.10;;;;;;5091512;28;20358;-70
2022/07/19 09:09:12;;;;;;;6.45;3.10;;;30.00;9.20;;;;;;5091093;28;20243;-70
2022/07/19 09:11:48;;;;;;;16.75;3.92;;;30.20;7.40;;;;;;5090689;28;20652;-70
2022/07/19 09:14:15;;;;;;;5.60;3.13;;;30.70;9.30;;;;;;5093987;28;20208;-70
2022/07/19 09:17:00;;;;;;;4.68;2.63;;;31.30;5.00;;;;;;5101864;28;20255;-70
2022/07/19 09:19:30;;;;;;;3.15;2.55;;;31.80;2.70;;;;;;5102668;28;20213;-70
2022/07/19 09:22:00;;;;;;;2.90;2.70;;;31.40;2.60;;;;;;5100209;28;20267;-70
2022/07/19 09:24:30;;;;;;;6.93;3.10;;;31.40;1.50;;;;;;5098835;28;20274;-70
2022/07/19 09:27:00;;;;;;;4.18;2.85;;;31.80;3.40;;;;;;5098993;28;20212;-70
2022/07/19 09:29:28;;;;;;;6.75;2.80;;;31.70;1.00;;;;;;5098306;28;20260;-70
2022/07/19 09:32:10;;;;;;;7.72;3.13;;;31.60;1.00;;;;;;5101454;28;20546;-70
2022/07/19 09:34:41;;;;;;;2.75;2.50;;;32.50;1.00;;;;;;5093249;28;20388;-70
2022/07/19 09:37:18;;;;;;;4.32;2.70;;;32.90;1.00;;;;;;5104141;28;20250;-70
2022/07/19 09:39:48;;;;;;;6.53;2.80;;;32.30;1.00;;;;;;5102799;28;20539;-70
2022/07/19 09:42:17;;;;;;;3.60;2.50;;;32.40;1.00;;;;;;5111092;28;20201;-70
2022/07/19 09:44:45;;;;;;;3.25;2.67;;;33.20;1.00;;;;;;5105372;28;20643;-70
2022/07/19 09:47:12;;;;;;;7.50;3.10;;;33.40;1.00;;;;;;5091055;28;20225;-70
2022/07/19 09:49:41;;;;;;;4.72;2.50;;;34.40;1.00;;;;;;5089346;28;20672;-70
2022/07/19 09:52:09;;;;;;;3.22;2.90;;;34.40;1.00;;;;;;5091335;28;20174;-70
2022/07/19 09:54:40;;;;;;;5.20;2.63;;;33.60;1.00;;;;;;5091153;28;20202;-70
2022/07/19 09:57:09;;;;;;;5.70;2.90;;;33.70;1.00;;;;;;5103780;28;20202;-70
2022/07/19 09:59:38;;;;;;;3.63;2.50;;;33.60;1.00;;;;;;5107496;28;20192;-70
2022/07/19 10:02:05;;;;;;;3.78;2.70;;;33.30;1.00;;;;;;5090981;28;20204;-70
2022/07/19 10:04:35;;;;;;;5.18;2.70;;;33.40;1.00;;;;;;5090199;28;20254;-70
2022/07/19 10:07:03;;;;;;;4.10;2.72;;;34.50;1.00;;;;;;5091448;28;20316;-70
2022/07/19 10:09:31;;;;;;;2.47;2.28;;;34.60;1.00;;;;;;5091440;28;20706;-70
2022/07/19 10:11:58;;;;;;;2.65;2.45;;;35.10;1.00;;;;;;5095275;28;20197;-70
2022/07/19 10:14:25;;;;;;;3.13;2.67;;;34.20;1.00;;;;;;5094792;28;20618;-70
2022/07/19 10:17:03;;;;;;;4.25;2.10;;;34.90;1.00;;;;;;5095426;28;20664;-70
2022/07/19 10:19:37;;;;;;;3.08;2.35;;;34.80;1.00;;;;;;5094877;28;20660;-70
2022/07/19 10:22:09;;;;;;;4.28;2.80;;;35.20;1.00;;;;;;5095018;28;20196;-70
2022/07/19 10:24:48;;;;;;;3.50;2.28;;;35.10;1.00;;;;;;5103790;28;20240;-71
2022/07/19 10:27:17;;;;;;;2.67;2.47;;;34.70;1.00;;;;;;5115279;28;20311;-70
2022/07/19 10:29:44;;;;;;;3.50;2.60;;;34.50;1.00;;;;;;5115148;28;20279;-70
2022/07/19 10:32:13;;;;;;;4.15;2.78;;;35.00;1.00;;;;;;5115269;28;20205;-70
2022/07/19 10:34:40;;;;;;;2.92;2.72;;;35.40;1.00;;;;;;5113634;28;20284;-70
2022/07/19 10:37:09;;;;;;;4.70;2.63;;;34.80;1.00;;;;;;5114924;28;20285;-70
2022/07/19 10:39:38;;;;;;;5.95;2.80;;;34.10;1.00;;;;;;5115052;28;20236;-70
2022/07/19 10:42:18;;;;;;;3.05;2.75;;;33.90;1.00;;;;;;5113982;28;20240;-70
2022/07/19 10:45:15;;;;;;;10.07;3.25;;;34.50;1.00;;;;;;5114955;28;20201;-70
2022/07/19 10:48:01;;;;;;;2.67;2.47;;;34.90;1.00;;;;;;5114313;28;20266;-70
2022/07/19 10:50:58;;;;;;;2.60;2.35;;;35.10;1.00;;;;;;5114097;28;20193;-70
2022/07/19 10:54:02;;;;;;;5.90;2.78;;;35.30;1.00;;;;;;5115210;28;20208;-70
2022/07/19 10:56:37;;;;;;;4.38;2.70;;;35.00;1.00;;;;;;5113558;28;20200;-70
2022/07/19 10:59:07;;;;;;;4.50;2.40;;;35.10;1.00;;;;;;5114681;28;20192;-70
2022/07/19 11:01:35;;;;;;;3.33;2.70;;;34.50;1.00;;;;;;5114952;28;20196;-70
2022/07/19 11:04:29;;;;;;;4.70;2.50;;;34.30;1.00;;;;;;5114695;28;20193;-70
2022/07/19 11:07:22;;;;;;;3.38;2.50;;;34.30;1.00;;;;;;5110781;28;20225;-70
2022/07/19 11:09:53;;;;;;;2.83;2.47;;;34.70;1.00;;;;;;5079734;28;20297;-70
2022/07/19 11:12:34;;;;;;;3.15;2.47;;;36.10;1.00;;;;;;5093176;28;20767;-70
2022/07/19 11:15:05;;;;;;;4.68;2.60;;;36.00;1.00;;;;;;5110017;28;20232;-70
2022/07/19 11:17:32;;;;;;;2.72;2.47;;;35.40;1.00;;;;;;5104569;28;20244;-68
2022/07/19 11:20:02;;;;;;;3.95;2.90;;;35.80;1.00;;;;;;5093199;28;20287;-68
2022/07/19 11:22:35;;;;;;;3.42;2.90;;;35.90;1.00;;;;;;5104473;28;20664;-68
2022/07/19 11:25:04;;;;;;;5.40;3.00;;;36.40;1.00;;;;;;5112061;28;20297;-68
2022/07/19 11:27:31;;;;;;;2.40;2.20;;;36.80;1.00;;;;;;5109488;28;20704;-68
2022/07/19 11:30:01;;;;;;;5.78;3.00;;;36.70;1.00;;;;;;5093954;28;20623;-68
2022/07/19 11:32:30;;;;;;;4.70;3.10;;;36.60;1.00;;;;;;5093642;28;20517;-68
2022/07/19 11:34:59;;;;;;;4.32;2.53;;;35.60;1.00;;;;;;5092758;28;20205;-68
2022/07/19 11:37:28;;;;;;;3.97;2.80;;;35.10;1.00;;;;;;5093870;28;20202;-68
2022/07/19 11:39:57;;;;;;;4.97;2.80;;;35.60;1.00;;;;;;5093075;28;20296;-68
2022/07/19 11:42:35;;;;;;;3.25;2.70;;;35.70;1.00;;;;;;5102279;28;20643;-68
2022/07/19 11:45:09;;;;;;;3.65;3.10;;;37.10;1.00;;;;;;5106172;28;20205;-68
2022/07/19 11:47:36;;;;;;;4.72;2.50;;;37.30;1.00;;;;;;5093016;28;20767;-68
2022/07/19 11:50:07;;;;;;;4.57;2.60;;;37.00;1.00;;;;;;5092083;28;20275;-68
2022/07/19 11:52:45;;;;;;;5.78;2.70;;;36.10;1.00;;;;;;5093226;28;20278;-68
2022/07/19 11:55:13;;;;;;;4.88;2.53;;;36.00;1.00;;;;;;5092206;28;20198;-68
2022/07/19 11:57:41;;;;;;;3.40;2.78;;;36.00;1.00;;;;;;5093657;28;20201;-68
2022/07/19 12:00:10;;;;;;;3.90;2.38;;;35.90;1.00;;;;;;5098156;28;20236;-68
2022/07/19 12:02:58;;;;;;;2.75;2.55;;;35.80;1.00;;;;;;5112523;28;20239;-68
2022/07/19 12:05:26;;;;;;;5.82;2.78;;;35.80;1.00;;;;;;5092765;28;20212;-68
2022/07/19 12:07:56;;;;;;;4.72;3.05;;;36.30;1.00;;;;;;5092885;28;20217;-68
2022/07/19 12:10:41;;;;;;;7.97;3.03;;;36.20;1.00;;;;;;5093289;28;20201;-68
2022/07/19 12:13:10;;;;;;;3.55;2.40;;;35.80;1.00;;;;;;5091731;28;20250;-68
2022/07/19 12:15:49;;;;;;;5.78;3.28;;;36.10;1.00;;;;;;5093509;28;20201;-68
2022/07/19 12:18:18;;;;;;;3.90;2.97;;;36.20;1.00;;;;;;5109009;28;20246;-68
2022/07/19 12:20:46;;;;;;;5.70;2.97;;;35.90;1.00;;;;;;5106405;28;20255;-68
2022/07/19 12:23:15;;;;;;;4.47;2.92;;;35.50;1.00;;;;;;5092361;28;20212;-68
2022/07/19 12:25:42;;;;;;;2.92;2.70;;;35.80;1.00;;;;;;5092075;28;20297;-68
2022/07/19 12:28:11;;;;;;;5.10;2.70;;;35.90;1.00;;;;;;5092850;28;20639;-68
2022/07/19 12:30:38;;;;;;;3.70;2.95;;;36.20;1.00;;;;;;5092320;28;20634;-68
2022/07/19 12:33:10;;;;;;;4.68;2.55;;;36.70;1.00;;;;;;5095732;28;20558;-68
2022/07/19 12:35:42;;;;;;;5.18;2.50;;;37.10;1.00;;;;;;5103059;28;20205;-68
2022/07/19 12:38:11;;;;;;;3.03;2.30;;;37.60;1.00;;;;;;5093031;28;20652;-68
2022/07/19 12:40:40;;;;;;;2.75;2.45;;;37.70;1.00;;;;;;5094784;28;20205;-68
2022/07/19 12:43:09;;;;;;;4.55;3.05;;;38.10;1.00;;;;;;5112485;28;20199;-68
2022/07/19 12:45:41;;;;;;;5.15;2.80;;;37.70;1.00;;;;;;5110896;28;20205;-67
2022/07/19 12:48:10;;;;;;;3.58;2.90;;;37.20;1.00;;;;;;5112717;28;20258;-66
2022/07/19 12:50:39;;;;;;;5.53;3.20;;;37.30;1.00;;;;;;5111672;28;20284;-66
2022/07/19 12:53:09;;;;;;;3.28;2.45;;;37.40;1.00;;;;;;5112860;28;20197;-66
2022/07/19 12:55:38;;;;;;;3.67;2.95;;;37.10;1.00;;;;;;5111176;28;20252;-66
2022/07/19 12:58:06;;;;;;;4.22;3.10;;;36.50;1.00;;;;;;5112720;28;20627;-66
2022/07/19 13:00:34;;;;;;;5.30;2.83;;;36.40;1.00;;;;;;5112439;28;20197;-66
2022/07/19 13:03:04;;;;;;;3.30;2.92;;;37.30;1.00;;;;;;5112604;28;20291;-66